Portada
METAR-TAF:

METAR-TAF

Aeroports :

Békéscsaba, Hongria

latitud: 46-41-00N, longitud: 021-09-45E, altitud: 86 m

Observació

L'informe es va fer fa 8 hores i 24 minuts, a les 17:45 UTC
Vent 9 kt del Nord
Temperatura 16°C
Humitat 63%
Pressió 1023 hPa
Visibilitat 10 km o més
Escasses núvols a una alçada de 4000 ft
Núvols disperses a una alçada de 9000 ft
Cel ennuvolat a una alçada de 20000 ft

METAR: LHBC 271745Z 35009KT 9999 FEW040 SCT090 BKN200 16/09 Q1023

Hora: 04:09 (02:09 UTC)


TAF: manca

Observacions i pronòstics meteorològics de més de 4000 aeroports (METAR i TAF).

Les estacions disponibles són els punts grocs i vermells al mapa.

Posi el ratolí al punt desitjat per veure el nom de l'estació.

Feu clic per veure les observacions i els pronòstics meteorològics.

Per canviar el mapa: feu clic els botons verds amb una creu de color negre per apropar; al botó verd amb un guió per allunyar la imatge; o en les fletxes verdes per a mapes adjacents.


METAR-TAF: